Time;durP1;ratioP1;P1;durP2;ratioP2;P2;SDS_P1;SDS_P2;PMS_P1;PMS_P2;Temp;Humidity;BMP_temperature;BMP_pressure;BME280_temperature;BME280_humidity;BME280_pressure;Samples;Min_cycle;Max_cycle;Signal;HPM_P1;HPM_P2
2022/12/16 00:00:15;;;;;;;;;;;0.10;99.90;;;;;;5093332;28;20344;-40
2022/12/16 00:02:41;;;;;;;;;;;0.10;99.90;;;;;;5093780;28;19912;-42
2022/12/16 00:05:07;;;;;;;;;;;0.10;99.90;;;;;;5093279;28;19909;-40
2022/12/16 00:07:32;;;;;;;;;;;0.10;99.90;;;;;;5112360;28;20352;-39
2022/12/16 00:09:58;;;;;;;;;;;0.10;99.90;;;;;;5113768;28;19912;-39
2022/12/16 00:12:23;;;;;;;;;;;0.10;99.90;;;;;;5113046;28;19924;-40
2022/12/16 00:14:49;;;;;;;;;;;0.10;99.90;;;;;;5113818;28;19975;-42
2022/12/16 00:17:14;;;;;;;;;;;0.10;99.90;;;;;;5112968;28;19953;-39
2022/12/16 00:19:40;;;;;;;;;;;0.20;99.90;;;;;;5113194;28;19955;-39
2022/12/16 00:22:05;;;;;;;;;;;0.20;99.90;;;;;;5114091;28;19908;-41
2022/12/16 00:24:31;;;;;;;;;;;0.20;99.90;;;;;;5113637;28;19950;-41
2022/12/16 00:26:56;;;;;;;;;;;0.20;99.90;;;;;;5101241;28;20278;-40
2022/12/16 00:29:22;;;;;;;;;;;0.30;99.90;;;;;;5113705;28;19912;-40
2022/12/16 00:31:48;;;;;;;;;;;0.30;99.90;;;;;;5113606;28;19908;-40
2022/12/16 00:34:14;;;;;;;;;;;0.30;99.90;;;;;;5113037;28;19912;-41
2022/12/16 00:36:39;;;;;;;;;;;0.30;99.90;;;;;;5113371;28;19908;-39
2022/12/16 00:39:05;;;;;;;;;;;0.30;99.90;;;;;;5113750;28;19943;-39
2022/12/16 00:41:30;;;;;;;;;;;0.40;99.90;;;;;;5099621;28;19923;-40
2022/12/16 00:43:56;;;;;;;;;;;0.40;99.90;;;;;;5093005;28;19962;-40
2022/12/16 00:46:21;;;;;;;;;;;0.40;99.90;;;;;;5093214;28;19953;-41
2022/12/16 00:48:46;;;;;;;;;;;0.40;99.90;;;;;;5092124;28;20370;-42
2022/12/16 00:51:12;;;;;;;;;;;0.40;99.90;;;;;;5098677;28;19918;-41
2022/12/16 00:53:37;;;;;;;;;;;0.40;99.90;;;;;;5112855;28;19911;-42
2022/12/16 00:56:04;;;;;;;;;;;0.50;99.90;;;;;;5112573;28;19923;-40
2022/12/16 00:58:30;;;;;;;;;;;0.40;99.90;;;;;;5113149;28;19908;-41
2022/12/16 01:00:55;;;;;;;;;;;0.40;99.90;;;;;;5095837;28;19923;-39
2022/12/16 01:03:21;;;;;;;;;;;0.40;99.90;;;;;;5112392;28;19994;-42
2022/12/16 01:05:46;;;;;;;;;;;0.40;99.90;;;;;;5112918;28;19908;-39
2022/12/16 01:08:12;;;;;;;;;;;0.30;99.90;;;;;;5113099;28;20423;-39
2022/12/16 01:10:37;;;;;;;;;;;0.40;99.90;;;;;;5111937;28;19915;-41
2022/12/16 01:13:03;;;;;;;;;;;0.30;99.90;;;;;;5112847;28;20405;-43
2022/12/16 01:15:28;;;;;;;;;;;0.40;99.90;;;;;;5112265;28;19916;-40
2022/12/16 01:17:54;;;;;;;;;;;0.30;99.90;;;;;;5104935;28;19916;-40
2022/12/16 01:20:19;;;;;;;;;;;0.40;99.90;;;;;;5092454;28;20393;-41
2022/12/16 01:22:45;;;;;;;;;;;0.30;99.90;;;;;;5091241;28;19912;-38
2022/12/16 01:25:11;;;;;;;;;;;0.40;99.90;;;;;;5092002;28;20343;-40
2022/12/16 01:27:37;;;;;;;;;;;0.30;99.90;;;;;;5091600;28;19961;-40
2022/12/16 01:30:03;;;;;;;;;;;0.40;99.90;;;;;;5091790;28;19909;-39
2022/12/16 01:32:28;;;;;;;;;;;0.40;99.90;;;;;;5091928;28;19968;-41
2022/12/16 01:34:54;;;;;;;;;;;0.40;99.90;;;;;;5092163;28;19920;-39
2022/12/16 01:37:20;;;;;;;;;;;0.40;99.90;;;;;;5091539;28;20159;-40
2022/12/16 01:39:46;;;;;;;;;;;0.40;99.90;;;;;;5092019;28;19953;-39
2022/12/16 01:42:12;;;;;;;;;;;0.50;99.90;;;;;;5091818;28;19935;-41
2022/12/16 01:44:38;;;;;;;;;;;0.50;99.90;;;;;;5091349;28;19915;-40
2022/12/16 01:47:04;;;;;;;;;;;0.40;99.90;;;;;;5109874;28;19911;-41
2022/12/16 01:49:29;;;;;;;;;;;0.40;99.90;;;;;;5096822;28;19912;-40
2022/12/16 01:51:57;;;;;;;;;;;0.40;99.90;;;;;;5111599;28;19912;-43
2022/12/16 01:54:25;;;;;;;;;;;0.40;99.90;;;;;;5111967;28;20280;-41
2022/12/16 01:56:53;;;;;;;;;;;0.40;99.90;;;;;;5112165;28;20012;-39
2022/12/16 01:59:19;;;;;;;;;;;0.40;99.90;;;;;;5111595;28;19919;-41
2022/12/16 02:01:44;;;;;;;;;;;0.50;99.90;;;;;;5112182;28;20263;-39
2022/12/16 02:04:10;;;;;;;;;;;0.50;99.90;;;;;;5112123;28;20397;-41
2022/12/16 02:06:35;;;;;;;;;;;0.50;99.90;;;;;;5111446;28;19951;-45
2022/12/16 02:09:04;;;;;;;;;;;0.50;99.90;;;;;;5112401;28;19938;-41
2022/12/16 02:11:33;;;;;;;;;;;0.50;99.90;;;;;;5112406;28;20274;-41
2022/12/16 02:14:04;;;;;;;;;;;0.50;99.90;;;;;;5092090;28;20015;-39
2022/12/16 02:16:48;;;;;;;;;;;0.50;99.90;;;;;;5088788;28;19959;-39
2022/12/16 02:19:25;;;;;;;;;;;0.50;99.90;;;;;;5070859;28;19912;-41
2022/12/16 02:22:08;;;;;;;;;;;0.50;99.90;;;;;;5071221;28;19913;-40
2022/12/16 02:24:42;;;;;;;;;;;0.40;99.90;;;;;;5082073;28;20002;-39
2022/12/16 02:27:26;;;;;;;;;;;0.40;99.90;;;;;;5070924;28;19908;-40
2022/12/16 02:30:19;;;;;;;;;;;0.50;99.90;;;;;;5071381;28;19909;-39
2022/12/16 02:33:04;;;;;;;;;;;0.50;99.90;;;;;;5071211;28;19908;-47
2022/12/16 02:35:39;;;;;;;;;;;0.50;99.90;;;;;;5057208;28;20352;-40
2022/12/16 02:38:23;;;;;;;;;;;0.50;99.90;;;;;;5071196;28;19916;-39
2022/12/16 02:40:56;;;;;;;;;;;0.50;99.90;;;;;;5073248;28;19908;-40
2022/12/16 02:43:47;;;;;;;;;;;0.50;99.90;;;;;;5075094;28;19916;-40
2022/12/16 02:46:13;;;;;;;;;;;0.50;99.90;;;;;;5076125;28;19962;-40
2022/12/16 02:48:38;;;;;;;;;;;0.50;99.90;;;;;;5073827;28;19956;-40
2022/12/16 02:51:04;;;;;;;;;;;0.50;99.90;;;;;;5075211;28;19970;-40
2022/12/16 02:53:31;;;;;;;;;;;0.50;99.90;;;;;;5074834;28;19908;-40
2022/12/16 02:56:17;;;;;;;;;;;0.50;99.90;;;;;;5073775;28;20007;-40
2022/12/16 02:58:42;;;;;;;;;;;0.50;99.90;;;;;;5074546;28;19959;-40
2022/12/16 03:01:17;;;;;;;;;;;0.40;99.90;;;;;;5074093;28;20364;-39
2022/12/16 03:03:45;;;;;;;;;;;0.40;99.90;;;;;;5074069;28;19909;-40
2022/12/16 03:06:12;;;;;;;;;;;0.40;99.90;;;;;;5074565;28;20423;-41
2022/12/16 03:08:39;;;;;;;;;;;0.40;99.90;;;;;;5073821;28;19947;-39
2022/12/16 03:11:07;;;;;;;;;;;0.40;99.90;;;;;;5074695;28;19956;-42
2022/12/16 03:13:36;;;;;;;;;;;0.40;99.90;;;;;;5089172;28;19920;-41
2022/12/16 03:16:02;;;;;;;;;;;0.40;99.90;;;;;;5106655;28;20010;-41
2022/12/16 03:18:28;;;;;;;;;;;0.40;99.90;;;;;;5115268;28;20428;-41
2022/12/16 03:20:55;;;;;;;;;;;0.40;99.90;;;;;;5114553;28;19908;-41
2022/12/16 03:23:52;;;;;;;;;;;0.40;99.90;;;;;;5108443;28;20425;-38
2022/12/16 03:26:20;;;;;;;;;;;0.40;99.90;;;;;;5076977;28;19908;-41
2022/12/16 03:28:59;;;;;;;;;;;0.30;99.90;;;;;;5094435;28;19908;-40
2022/12/16 03:31:43;;;;;;;;;;;0.30;99.90;;;;;;5095521;28;19993;-39
2022/12/16 03:34:20;;;;;;;;;;;0.30;99.90;;;;;;5114663;28;19996;-41
2022/12/16 03:36:50;;;;;;;;;;;0.30;99.90;;;;;;5113939;28;19968;-41
2022/12/16 03:39:16;;;;;;;;;;;0.30;99.90;;;;;;5114933;28;19912;-41
2022/12/16 03:41:42;;;;;;;;;;;0.30;99.90;;;;;;5114564;28;19908;-40
2022/12/16 03:44:09;;;;;;;;;;;0.30;99.90;;;;;;5113908;28;19915;-40
2022/12/16 03:46:34;;;;;;;;;;;0.30;99.90;;;;;;5096882;28;20385;-44
2022/12/16 03:49:00;;;;;;;;;;;0.30;99.90;;;;;;5094133;28;19908;-41
2022/12/16 03:51:25;;;;;;;;;;;0.40;99.90;;;;;;5093445;28;19947;-39
2022/12/16 03:53:51;;;;;;;;;;;0.40;99.90;;;;;;5093780;28;19912;-39
2022/12/16 03:56:16;;;;;;;;;;;0.40;99.90;;;;;;5094028;28;20399;-41
2022/12/16 03:58:42;;;;;;;;;;;0.50;99.90;;;;;;5092789;28;19953;-40
2022/12/16 04:01:08;;;;;;;;;;;0.50;99.90;;;;;;5094168;28;19908;-39
2022/12/16 04:03:34;;;;;;;;;;;0.50;99.90;;;;;;5094037;28;19961;-40
2022/12/16 04:06:00;;;;;;;;;;;0.50;99.90;;;;;;5093159;28;19908;-41
2022/12/16 04:08:25;;;;;;;;;;;0.50;99.90;;;;;;5093926;28;19922;-41
2022/12/16 04:24:33;;;;;;;;;;;0.50;99.90;;;;;;5093371;28;20432;-39
